Picacho, New Mexico
Current Conditions -  °F | °C
As of 7:51 PM on Sunday 21 Dec 2014 (Local Time) from KROW Reporting Station
Clear Clear  
Wind Chill: 12°   Ceiling: Unl
Heat Index: 12°   Visibility: 10mi
Dew Point: -3°   Wind: 12mph
Humidity: 34%   Direction: 250°WSW
Pressure: 29.74"   Gusts: NA
Location:  33.41°N, 105.01°W
Report Text: KROW 220251Z 25010KT 10SM CLR 12/M03 A2974 RMK AO2 SLP054 T01221033 53002
Loading
Personal Weather Stations






























Interactive Weather Map New forecast layout! Learn more

10-Day Weather Forecast

Advertisements
Track Severe Weather on mobile